sensor_id;sensor_type;location;lat;lon;timestamp;pressure;altitude;pressure_sealevel;temperature;humidity
32873;BME280;19224;52.462;16.898;2022-12-18T00:00:50;101939.48;;;-3.50;100.00
32873;BME280;19224;52.462;16.898;2022-12-18T00:03:21;101947.51;;;-3.58;100.00
32873;BME280;19224;52.462;16.898;2022-12-18T00:05:52;101954.50;;;-3.69;100.00
32873;BME280;19224;52.462;16.898;2022-12-18T00:08:23;101951.03;;;-3.68;100.00
32873;BME280;19224;52.462;16.898;2022-12-18T00:10:53;101946.13;;;-3.70;100.00
32873;BME280;19224;52.462;16.898;2022-12-18T00:13:24;101948.30;;;-3.71;100.00
32873;BME280;19224;52.462;16.898;2022-12-18T00:15:54;101953.15;;;-3.71;100.00
32873;BME280;19224;52.462;16.898;2022-12-18T00:18:25;101951.03;;;-3.68;100.00
32873;BME280;19224;52.462;16.898;2022-12-18T00:20:59;101954.31;;;-3.63;100.00
32873;BME280;19224;52.462;16.898;2022-12-18T00:23:31;101950.55;;;-3.69;100.00
32873;BME280;19224;52.462;16.898;2022-12-18T00:26:08;101954.64;;;-3.66;100.00
32873;BME280;19224;52.462;16.898;2022-12-18T00:28:39;101962.17;;;-3.64;100.00
32873;BME280;19224;52.462;16.898;2022-12-18T00:31:14;101952.67;;;-3.72;100.00
32873;BME280;19224;52.462;16.898;2022-12-18T00:33:46;101952.34;;;-3.68;100.00
32873;BME280;19224;52.462;16.898;2022-12-18T00:36:23;101961.07;;;-3.58;100.00
32873;BME280;19224;52.462;16.898;2022-12-18T00:38:56;101959.06;;;-3.65;100.00
32873;BME280;19224;52.462;16.898;2022-12-18T00:41:27;101966.22;;;-3.50;100.00
32873;BME280;19224;52.462;16.898;2022-12-18T00:44:17;101971.12;;;-3.48;100.00
32873;BME280;19224;52.462;16.898;2022-12-18T00:46:48;101970.77;;;-3.57;100.00
32873;BME280;19224;52.462;16.898;2022-12-18T00:49:19;101981.65;;;-3.48;100.00
32873;BME280;19224;52.462;16.898;2022-12-18T00:51:50;101978.06;;;-3.50;100.00
32873;BME280;19224;52.462;16.898;2022-12-18T00:54:21;101978.73;;;-3.67;100.00
32873;BME280;19224;52.462;16.898;2022-12-18T00:56:51;101981.08;;;-3.85;100.00
32873;BME280;19224;52.462;16.898;2022-12-18T00:59:22;101984.25;;;-3.94;100.00
32873;BME280;19224;52.462;16.898;2022-12-18T01:01:52;101985.90;;;-3.96;100.00
32873;BME280;19224;52.462;16.898;2022-12-18T01:04:23;101992.91;;;-3.96;100.00
32873;BME280;19224;52.462;16.898;2022-12-18T01:06:53;102003.44;;;-3.96;100.00
32873;BME280;19224;52.462;16.898;2022-12-18T01:09:24;102013.00;;;-3.98;100.00
32873;BME280;19224;52.462;16.898;2022-12-18T01:11:55;102019.54;;;-4.20;100.00
32873;BME280;19224;52.462;16.898;2022-12-18T01:14:25;102014.89;;;-4.05;100.00
32873;BME280;19224;52.462;16.898;2022-12-18T01:16:56;102013.22;;;-4.03;100.00
32873;BME280;19224;52.462;16.898;2022-12-18T01:19:27;102012.63;;;-4.07;100.00
32873;BME280;19224;52.462;16.898;2022-12-18T01:21:58;102011.69;;;-3.98;100.00
32873;BME280;19224;52.462;16.898;2022-12-18T01:24:28;102020.84;;;-3.89;100.00
32873;BME280;19224;52.462;16.898;2022-12-18T01:26:59;102019.16;;;-3.87;100.00
32873;BME280;19224;52.462;16.898;2022-12-18T01:29:29;102020.16;;;-4.05;100.00
32873;BME280;19224;52.462;16.898;2022-12-18T01:32:00;102021.47;;;-4.05;100.00
32873;BME280;19224;52.462;16.898;2022-12-18T01:34:30;102025.17;;;-4.00;100.00
32873;BME280;19224;52.462;16.898;2022-12-18T01:37:04;102018.59;;;-4.00;100.00
32873;BME280;19224;52.462;16.898;2022-12-18T01:39:34;102017.79;;;-3.99;100.00
32873;BME280;19224;52.462;16.898;2022-12-18T01:42:14;102028.45;;;-4.06;100.00
32873;BME280;19224;52.462;16.898;2022-12-18T01:50:34;102031.94;;;-4.27;100.00
32873;BME280;19224;52.462;16.898;2022-12-18T01:53:21;102030.66;;;-4.37;100.00
32873;BME280;19224;52.462;16.898;2022-12-18T01:55:57;102033.70;;;-4.37;100.00
32873;BME280;19224;52.462;16.898;2022-12-18T01:58:58;102040.63;;;-4.39;100.00
32873;BME280;19224;52.462;16.898;2022-12-18T02:01:25;102032.38;;;-4.37;100.00
32873;BME280;19224;52.462;16.898;2022-12-18T02:03:56;102032.38;;;-4.37;100.00
32873;BME280;19224;52.462;16.898;2022-12-18T02:06:38;102034.89;;;-4.40;100.00
32873;BME280;19224;52.462;16.898;2022-12-18T02:09:13;102037.84;;;-4.33;100.00
32873;BME280;19224;52.462;16.898;2022-12-18T02:12:13;102040.55;;;-4.31;100.00
32873;BME280;19224;52.462;16.898;2022-12-18T02:14:55;102033.34;;;-4.35;100.00
32873;BME280;19224;52.462;16.898;2022-12-18T02:17:47;102045.56;;;-4.26;100.00
32873;BME280;19224;52.462;16.898;2022-12-18T02:26:26;102060.03;;;-4.26;100.00
32873;BME280;19224;52.462;16.898;2022-12-18T02:29:12;102062.97;;;-4.39;100.00
32873;BME280;19224;52.462;16.898;2022-12-18T02:31:51;102054.13;;;-4.41;100.00
32873;BME280;19224;52.462;16.898;2022-12-18T02:34:21;102060.22;;;-4.42;100.00
32873;BME280;19224;52.462;16.898;2022-12-18T02:36:53;102060.58;;;-4.44;100.00
32873;BME280;19224;52.462;16.898;2022-12-18T02:39:26;102069.70;;;-4.46;100.00
32873;BME280;19224;52.462;16.898;2022-12-18T02:41:59;102067.08;;;-4.46;100.00
32873;BME280;19224;52.462;16.898;2022-12-18T02:44:31;102064.77;;;-4.38;100.00
32873;BME280;19224;52.462;16.898;2022-12-18T02:47:02;102071.38;;;-4.27;100.00
32873;BME280;19224;52.462;16.898;2022-12-18T02:52:34;102065.67;;;-4.47;100.00
32873;BME280;19224;52.462;16.898;2022-12-18T02:55:15;102069.84;;;-4.62;100.00
32873;BME280;19224;52.462;16.898;2022-12-18T02:58:04;102078.36;;;-4.67;100.00
32873;BME280;19224;52.462;16.898;2022-12-18T03:00:48;102082.66;;;-4.69;100.00
32873;BME280;19224;52.462;16.898;2022-12-18T03:03:45;102084.95;;;-4.76;100.00
32873;BME280;19224;52.462;16.898;2022-12-18T03:06:46;102076.30;;;-4.83;100.00
32873;BME280;19224;52.462;16.898;2022-12-18T03:09:29;102078.66;;;-4.80;100.00
32873;BME280;19224;52.462;16.898;2022-12-18T03:12:24;102079.62;;;-4.68;100.00
32873;BME280;19224;52.462;16.898;2022-12-18T03:15:17;102079.36;;;-4.65;100.00
32873;BME280;19224;52.462;16.898;2022-12-18T03:17:56;102080.94;;;-4.68;100.00
32873;BME280;19224;52.462;16.898;2022-12-18T03:20:26;102086.83;;;-4.74;100.00
32873;BME280;19224;52.462;16.898;2022-12-18T03:23:06;102088.83;;;-4.68;100.00
32873;BME280;19224;52.462;16.898;2022-12-18T03:25:38;102089.03;;;-4.83;100.00
32873;BME280;19224;52.462;16.898;2022-12-18T03:28:13;102092.97;;;-4.83;100.00
32873;BME280;19224;52.462;16.898;2022-12-18T03:30:47;102093.19;;;-4.78;100.00
32873;BME280;19224;52.462;16.898;2022-12-18T03:33:35;102094.16;;;-4.86;100.00
32873;BME280;19224;52.462;16.898;2022-12-18T03:36:02;102096.36;;;-4.95;100.00
32873;BME280;19224;52.462;16.898;2022-12-18T03:38:33;102102.86;;;-5.06;100.00
32873;BME280;19224;52.462;16.898;2022-12-18T03:44:10;102107.72;;;-5.23;100.00
32873;BME280;19224;52.462;16.898;2022-12-18T03:47:05;102115.45;;;-5.35;100.00
32873;BME280;19224;52.462;16.898;2022-12-18T03:50:25;102114.09;;;-5.45;100.00
32873;BME280;19224;52.462;16.898;2022-12-18T03:52:51;102119.21;;;-5.48;100.00
32873;BME280;19224;52.462;16.898;2022-12-18T03:55:22;102123.38;;;-5.34;100.00
32873;BME280;19224;52.462;16.898;2022-12-18T03:57:55;102119.27;;;-5.29;100.00
32873;BME280;19224;52.462;16.898;2022-12-18T04:00:26;102121.89;;;-5.29;100.00
32873;BME280;19224;52.462;16.898;2022-12-18T04:03:01;102107.89;;;-5.20;100.00
32873;BME280;19224;52.462;16.898;2022-12-18T04:05:34;102116.12;;;-5.12;100.00
32873;BME280;19224;52.462;16.898;2022-12-18T04:08:06;102105.97;;;-5.14;100.00
32873;BME280;19224;52.462;16.898;2022-12-18T04:10:37;102111.27;;;-5.13;100.00
32873;BME280;19224;52.462;16.898;2022-12-18T04:13:09;102118.52;;;-5.17;100.00
32873;BME280;19224;52.462;16.898;2022-12-18T04:15:39;102121.90;;;-5.19;100.00
32873;BME280;19224;52.462;16.898;2022-12-18T04:18:10;102123.12;;;-5.30;100.00
32873;BME280;19224;52.462;16.898;2022-12-18T04:20:40;102128.02;;;-5.38;100.00
32873;BME280;19224;52.462;16.898;2022-12-18T04:23:11;102127.31;;;-5.34;100.00
32873;BME280;19224;52.462;16.898;2022-12-18T04:25:41;102137.16;;;-5.30;100.00
32873;BME280;19224;52.462;16.898;2022-12-18T04:28:12;102131.17;;;-5.18;100.00
32873;BME280;19224;52.462;16.898;2022-12-18T04:30:42;102141.77;;;-5.07;100.00
32873;BME280;19224;52.462;16.898;2022-12-18T04:33:13;102136.51;;;-4.97;100.00
32873;BME280;19224;52.462;16.898;2022-12-18T04:35:43;102135.20;;;-4.97;100.00
32873;BME280;19224;52.462;16.898;2022-12-18T04:38:14;102142.25;;;-4.96;100.00
32873;BME280;19224;52.462;16.898;2022-12-18T04:40:45;102152.22;;;-4.99;100.00
32873;BME280;19224;52.462;16.898;2022-12-18T04:43:15;102143.99;;;-4.97;100.00
32873;BME280;19224;52.462;16.898;2022-12-18T04:45:46;102145.52;;;-4.92;100.00
32873;BME280;19224;52.462;16.898;2022-12-18T04:48:16;102141.80;;;-4.88;100.00
32873;BME280;19224;52.462;16.898;2022-12-18T04:50:47;102157.73;;;-4.93;100.00
32873;BME280;19224;52.462;16.898;2022-12-18T04:53:18;102157.04;;;-4.89;100.00
32873;BME280;19224;52.462;16.898;2022-12-18T04:55:48;102161.50;;;-4.88;100.00
32873;BME280;19224;52.462;16.898;2022-12-18T04:58:19;102159.13;;;-4.82;100.00
32873;BME280;19224;52.462;16.898;2022-12-18T05:00:49;102167.50;;;-4.81;100.00
32873;BME280;19224;52.462;16.898;2022-12-18T05:03:20;102161.50;;;-4.88;100.00
32873;BME280;19224;52.462;16.898;2022-12-18T05:05:52;102160.58;;;-4.88;100.00
32873;BME280;19224;52.462;16.898;2022-12-18T05:08:22;102172.97;;;-4.86;100.00
32873;BME280;19224;52.462;16.898;2022-12-18T05:11:06;102171.48;;;-4.89;100.00
32873;BME280;19224;52.462;16.898;2022-12-18T05:13:37;102178.62;;;-4.96;100.00
32873;BME280;19224;52.462;16.898;2022-12-18T05:16:08;102177.44;;;-4.93;100.00
32873;BME280;19224;52.462;16.898;2022-12-18T05:18:40;102189.61;;;-4.95;100.00
32873;BME280;19224;52.462;16.898;2022-12-18T05:21:10;102186.16;;;-4.94;100.00
32873;BME280;19224;52.462;16.898;2022-12-18T05:23:40;102188.73;;;-4.86;100.00
32873;BME280;19224;52.462;16.898;2022-12-18T05:26:15;102191.01;;;-4.84;100.00
32873;BME280;19224;52.462;16.898;2022-12-18T05:28:46;102183.61;;;-4.83;100.00
32873;BME280;19224;52.462;16.898;2022-12-18T05:31:17;102190.79;;;-4.98;100.00
32873;BME280;19224;52.462;16.898;2022-12-18T05:33:47;102198.36;;;-5.04;100.00
32873;BME280;19224;52.462;16.898;2022-12-18T05:36:18;102200.77;;;-5.08;100.00
32873;BME280;19224;52.462;16.898;2022-12-18T05:38:48;102204.30;;;-5.08;100.00
32873;BME280;19224;52.462;16.898;2022-12-18T05:41:19;102205.55;;;-5.00;100.00
32873;BME280;19224;52.462;16.898;2022-12-18T05:43:49;102204.89;;;-4.96;100.00
32873;BME280;19224;52.462;16.898;2022-12-18T05:46:20;102206.64;;;-4.87;100.00
32873;BME280;19224;52.462;16.898;2022-12-18T05:48:50;102211.20;;;-4.83;100.00
32873;BME280;19224;52.462;16.898;2022-12-18T05:51:22;102219.30;;;-4.78;100.00
32873;BME280;19224;52.462;16.898;2022-12-18T05:53:52;102221.30;;;-4.82;100.00
32873;BME280;19224;52.462;16.898;2022-12-18T05:56:23;102222.19;;;-4.82;100.00
32873;BME280;19224;52.462;16.898;2022-12-18T05:58:55;102228.36;;;-4.81;100.00
32873;BME280;19224;52.462;16.898;2022-12-18T06:01:27;102228.80;;;-4.90;100.00
32873;BME280;19224;52.462;16.898;2022-12-18T06:03:57;102233.17;;;-4.81;100.00
32873;BME280;19224;52.462;16.898;2022-12-18T06:06:28;102239.70;;;-4.82;100.00
32873;BME280;19224;52.462;16.898;2022-12-18T06:09:00;102237.72;;;-4.96;100.00
32873;BME280;19224;52.462;16.898;2022-12-18T06:11:30;102242.05;;;-4.96;100.00
32873;BME280;19224;52.462;16.898;2022-12-18T06:14:02;102255.79;;;-5.02;100.00
32873;BME280;19224;52.462;16.898;2022-12-18T06:16:33;102251.58;;;-5.08;100.00
32873;BME280;19224;52.462;16.898;2022-12-18T06:19:05;102258.07;;;-5.00;100.00
32873;BME280;19224;52.462;16.898;2022-12-18T06:21:35;102264.33;;;-4.98;100.00
32873;BME280;19224;52.462;16.898;2022-12-18T06:24:06;102261.92;;;-4.93;100.00
32873;BME280;19224;52.462;16.898;2022-12-18T06:26:39;102272.00;;;-4.93;100.00
32873;BME280;19224;52.462;16.898;2022-12-18T06:29:09;102267.89;;;-4.88;100.00
32873;BME280;19224;52.462;16.898;2022-12-18T06:31:39;102270.30;;;-4.83;100.00
32873;BME280;19224;52.462;16.898;2022-12-18T06:34:10;102270.92;;;-4.79;100.00
32873;BME280;19224;52.462;16.898;2022-12-18T06:36:40;102268.61;;;-4.73;100.00
32873;BME280;19224;52.462;16.898;2022-12-18T06:39:11;102273.16;;;-4.69;100.00
32873;BME280;19224;52.462;16.898;2022-12-18T06:41:41;102268.08;;;-4.66;100.00
32873;BME280;19224;52.462;16.898;2022-12-18T06:44:12;102268.13;;;-4.65;100.00
32873;BME280;19224;52.462;16.898;2022-12-18T06:46:42;102265.98;;;-4.64;100.00
32873;BME280;19224;52.462;16.898;2022-12-18T06:52:02;102269.80;;;-4.57;100.00
32873;BME280;19224;52.462;16.898;2022-12-18T06:54:32;102276.84;;;-4.75;100.00
32873;BME280;19224;52.462;16.898;2022-12-18T06:57:03;102272.80;;;-4.86;100.00
32873;BME280;19224;52.462;16.898;2022-12-18T06:59:33;102283.73;;;-4.94;100.00
32873;BME280;19224;52.462;16.898;2022-12-18T07:02:03;102282.54;;;-5.01;100.00
32873;BME280;19224;52.462;16.898;2022-12-18T07:04:34;102297.78;;;-4.94;100.00
32873;BME280;19224;52.462;16.898;2022-12-18T07:07:04;102294.44;;;-4.82;100.00
32873;BME280;19224;52.462;16.898;2022-12-18T07:09:34;102297.69;;;-4.78;100.00
32873;BME280;19224;52.462;16.898;2022-12-18T07:12:05;102305.73;;;-4.75;100.00
32873;BME280;19224;52.462;16.898;2022-12-18T07:14:36;102309.48;;;-4.87;100.00
32873;BME280;19224;52.462;16.898;2022-12-18T07:17:13;102300.89;;;-4.93;100.00
32873;BME280;19224;52.462;16.898;2022-12-18T07:19:44;102308.29;;;-4.94;100.00
32873;BME280;19224;52.462;16.898;2022-12-18T07:22:14;102311.01;;;-4.92;100.00
32873;BME280;19224;52.462;16.898;2022-12-18T07:24:45;102311.23;;;-4.88;100.00
32873;BME280;19224;52.462;16.898;2022-12-18T07:27:15;102316.91;;;-4.79;100.00
32873;BME280;19224;52.462;16.898;2022-12-18T07:29:45;102310.16;;;-4.74;100.00
32873;BME280;19224;52.462;16.898;2022-12-18T07:32:16;102314.38;;;-4.68;100.00
32873;BME280;19224;52.462;16.898;2022-12-18T07:34:46;102317.36;;;-4.70;100.00
32873;BME280;19224;52.462;16.898;2022-12-18T07:37:17;102334.09;;;-4.68;100.00
32873;BME280;19224;52.462;16.898;2022-12-18T07:39:47;102338.58;;;-4.75;100.00
32873;BME280;19224;52.462;16.898;2022-12-18T07:42:17;102342.78;;;-4.78;100.00
32873;BME280;19224;52.462;16.898;2022-12-18T07:45:01;102348.89;;;-4.70;100.00
32873;BME280;19224;52.462;16.898;2022-12-18T07:47:36;102362.39;;;-4.63;100.00
32873;BME280;19224;52.462;16.898;2022-12-18T07:50:08;102360.96;;;-4.56;100.00
32873;BME280;19224;52.462;16.898;2022-12-18T07:52:38;102362.93;;;-4.52;100.00
32873;BME280;19224;52.462;16.898;2022-12-18T07:55:09;102363.81;;;-4.52;100.00
32873;BME280;19224;52.462;16.898;2022-12-18T07:57:39;102368.77;;;-4.50;100.00
32873;BME280;19224;52.462;16.898;2022-12-18T08:00:11;102376.45;;;-4.62;100.00
32873;BME280;19224;52.462;16.898;2022-12-18T08:02:42;102375.25;;;-4.68;100.00
32873;BME280;19224;52.462;16.898;2022-12-18T08:05:12;102376.56;;;-4.86;100.00
32873;BME280;19224;52.462;16.898;2022-12-18T08:07:43;102382.30;;;-4.85;100.00
32873;BME280;19224;52.462;16.898;2022-12-18T08:10:14;102387.84;;;-4.79;100.00
32873;BME280;19224;52.462;16.898;2022-12-18T08:12:44;102389.75;;;-4.84;100.00
32873;BME280;19224;52.462;16.898;2022-12-18T08:15:15;102391.66;;;-4.90;100.00
32873;BME280;19224;52.462;16.898;2022-12-18T08:17:46;102391.18;;;-4.91;100.00
32873;BME280;19224;52.462;16.898;2022-12-18T08:20:16;102394.02;;;-4.78;100.00
32873;BME280;19224;52.462;16.898;2022-12-18T08:22:47;102396.14;;;-4.71;100.00
32873;BME280;19224;52.462;16.898;2022-12-18T08:25:17;102393.16;;;-4.69;100.00
32873;BME280;19224;52.462;16.898;2022-12-18T08:27:48;102391.53;;;-4.58;100.00
32873;BME280;19224;52.462;16.898;2022-12-18T08:30:18;102392.13;;;-4.46;100.00
32873;BME280;19224;52.462;16.898;2022-12-18T08:32:55;102389.46;;;-4.38;100.00
32873;BME280;19224;52.462;16.898;2022-12-18T08:35:22;102386.53;;;-4.27;100.00
32873;BME280;19224;52.462;16.898;2022-12-18T08:37:52;102387.55;;;-4.23;100.00
32873;BME280;19224;52.462;16.898;2022-12-18T08:40:23;102382.37;;;-4.12;100.00
32873;BME280;19224;52.462;16.898;2022-12-18T08:42:53;102391.94;;;-4.14;100.00
32873;BME280;19224;52.462;16.898;2022-12-18T08:45:41;102389.05;;;-4.01;100.00
32873;BME280;19224;52.462;16.898;2022-12-18T08:48:12;102383.78;;;-4.01;100.00
32873;BME280;19224;52.462;16.898;2022-12-18T08:50:43;102381.72;;;-3.89;100.00
32873;BME280;19224;52.462;16.898;2022-12-18T08:53:13;102365.39;;;-3.82;100.00
32873;BME280;19224;52.462;16.898;2022-12-18T08:55:44;102365.58;;;-3.68;100.00
32873;BME280;19224;52.462;16.898;2022-12-18T08:58:14;102365.87;;;-3.62;100.00
32873;BME280;19224;52.462;16.898;2022-12-18T09:00:45;102353.73;;;-3.68;100.00
32873;BME280;19224;52.462;16.898;2022-12-18T09:03:18;102352.16;;;-3.65;100.00
32873;BME280;19224;52.462;16.898;2022-12-18T09:05:51;102343.14;;;-3.60;100.00
32873;BME280;19224;52.462;16.898;2022-12-18T09:08:22;102338.64;;;-3.53;100.00
32873;BME280;19224;52.462;16.898;2022-12-18T09:10:52;102340.69;;;-3.46;100.00
32873;BME280;19224;52.462;16.898;2022-12-18T09:13:24;102345.13;;;-3.45;100.00
32873;BME280;19224;52.462;16.898;2022-12-18T09:15:55;102350.67;;;-3.39;100.00
32873;BME280;19224;52.462;16.898;2022-12-18T09:18:26;102357.10;;;-3.33;100.00
32873;BME280;19224;52.462;16.898;2022-12-18T09:20:56;102354.31;;;-3.26;100.00
32873;BME280;19224;52.462;16.898;2022-12-18T09:23:26;102354.92;;;-3.22;100.00
32873;BME280;19224;52.462;16.898;2022-12-18T09:26:01;102357.34;;;-3.17;100.00
32873;BME280;19224;52.462;16.898;2022-12-18T09:28:31;102359.14;;;-3.16;100.00
32873;BME280;19224;52.462;16.898;2022-12-18T09:31:12;102365.66;;;-3.18;100.00
32873;BME280;19224;52.462;16.898;2022-12-18T09:33:46;102371.20;;;-3.12;100.00
32873;BME280;19224;52.462;16.898;2022-12-18T09:36:25;102377.31;;;-3.13;100.00
32873;BME280;19224;52.462;16.898;2022-12-18T09:38:55;102373.23;;;-3.16;100.00
32873;BME280;19224;52.462;16.898;2022-12-18T09:41:39;102374.72;;;-3.11;100.00
32873;BME280;19224;52.462;16.898;2022-12-18T09:44:23;102379.38;;;-3.15;100.00
32873;BME280;19224;52.462;16.898;2022-12-18T09:47:13;102377.43;;;-3.10;100.00
32873;BME280;19224;52.462;16.898;2022-12-18T09:50:33;102366.02;;;-3.10;100.00
32873;BME280;19224;52.462;16.898;2022-12-18T09:52:43;102363.94;;;-2.97;100.00
32873;BME280;19224;52.462;16.898;2022-12-18T10:00:55;102373.98;;;-2.88;100.00
32873;BME280;19224;52.462;16.898;2022-12-18T10:03:26;102367.25;;;-2.91;100.00
32873;BME280;19224;52.462;16.898;2022-12-18T10:06:07;102358.73;;;-2.95;100.00
32873;BME280;19224;52.462;16.898;2022-12-18T10:15:22;102354.84;;;-2.73;100.00
32873;BME280;19224;52.462;16.898;2022-12-18T10:20:51;102359.52;;;-2.77;100.00
32873;BME280;19224;52.462;16.898;2022-12-18T10:23:43;102370.41;;;-2.68;100.00
32873;BME280;19224;52.462;16.898;2022-12-18T10:26:12;102373.38;;;-2.72;100.00
32873;BME280;19224;52.462;16.898;2022-12-18T10:28:42;102376.80;;;-2.63;100.00
32873;BME280;19224;52.462;16.898;2022-12-18T10:31:17;102372.23;;;-2.56;100.00
32873;BME280;19224;52.462;16.898;2022-12-18T10:33:48;102361.11;;;-2.49;100.00
32873;BME280;19224;52.462;16.898;2022-12-18T10:36:23;102364.41;;;-2.44;100.00
32873;BME280;19224;52.462;16.898;2022-12-18T10:38:54;102370.75;;;-2.39;100.00
32873;BME280;19224;52.462;16.898;2022-12-18T10:41:27;102376.55;;;-2.27;100.00
32873;BME280;19224;52.462;16.898;2022-12-18T10:44:21;102371.67;;;-2.28;100.00
32873;BME280;19224;52.462;16.898;2022-12-18T10:47:02;102374.90;;;-2.24;100.00
32873;BME280;19224;52.462;16.898;2022-12-18T10:49:33;102370.61;;;-2.22;100.00
32873;BME280;19224;52.462;16.898;2022-12-18T10:52:20;102371.27;;;-2.16;100.00
32873;BME280;19224;52.462;16.898;2022-12-18T10:55:04;102371.56;;;-2.20;100.00
32873;BME280;19224;52.462;16.898;2022-12-18T10:57:39;102370.47;;;-2.14;100.00
32873;BME280;19224;52.462;16.898;2022-12-18T11:00:29;102369.52;;;-2.05;100.00
32873;BME280;19224;52.462;16.898;2022-12-18T11:03:00;102367.45;;;-2.01;100.00
32873;BME280;19224;52.462;16.898;2022-12-18T11:05:35;102362.72;;;-1.98;100.00
32873;BME280;19224;52.462;16.898;2022-12-18T11:08:18;102361.59;;;-2.05;100.00
32873;BME280;19224;52.462;16.898;2022-12-18T11:10:44;102360.27;;;-2.05;100.00
32873;BME280;19224;52.462;16.898;2022-12-18T11:13:22;102350.16;;;-2.05;100.00
32873;BME280;19224;52.462;16.898;2022-12-18T11:15:54;102345.45;;;-2.01;100.00
32873;BME280;19224;52.462;16.898;2022-12-18T11:18:32;102346.11;;;-1.96;100.00
32873;BME280;19224;52.462;16.898;2022-12-18T11:21:13;102350.28;;;-1.90;100.00
32873;BME280;19224;52.462;16.898;2022-12-18T11:23:51;102359.17;;;-1.77;100.00
32873;BME280;19224;52.462;16.898;2022-12-18T11:26:33;102356.16;;;-1.75;100.00
32873;BME280;19224;52.462;16.898;2022-12-18T11:29:15;102353.73;;;-1.69;100.00
32873;BME280;19224;52.462;16.898;2022-12-18T11:31:43;102347.97;;;-1.70;100.00
32873;BME280;19224;52.462;16.898;2022-12-18T11:34:23;102342.39;;;-1.66;100.00
32873;BME280;19224;52.462;16.898;2022-12-18T11:36:51;102337.75;;;-1.61;100.00
32873;BME280;19224;52.462;16.898;2022-12-18T11:39:35;102341.44;;;-1.56;100.00
32873;BME280;19224;52.462;16.898;2022-12-18T11:42:32;102341.23;;;-1.62;100.00
32873;BME280;19224;52.462;16.898;2022-12-18T11:53:21;102347.40;;;-1.61;100.00
32873;BME280;19224;52.462;16.898;2022-12-18T12:01:55;102368.59;;;-1.60;100.00
32873;BME280;19224;52.462;16.898;2022-12-18T12:08:01;102369.31;;;-1.53;100.00
32873;BME280;19224;52.462;16.898;2022-12-18T12:16:41;102366.50;;;-1.45;100.00
32873;BME280;19224;52.462;16.898;2022-12-18T12:22:45;102377.41;;;-1.36;100.00
32873;BME280;19224;52.462;16.898;2022-12-18T12:25:46;102381.38;;;-1.36;100.00
32873;BME280;19224;52.462;16.898;2022-12-18T12:28:52;102393.41;;;-1.33;100.00
32873;BME280;19224;52.462;16.898;2022-12-18T12:39:48;102388.73;;;-1.40;100.00
32873;BME280;19224;52.462;16.898;2022-12-18T12:42:27;102379.48;;;-1.40;100.00
32873;BME280;19224;52.462;16.898;2022-12-18T12:45:18;102372.87;;;-1.40;100.00
32873;BME280;19224;52.462;16.898;2022-12-18T12:47:49;102375.88;;;-1.29;100.00
32873;BME280;19224;52.462;16.898;2022-12-18T12:50:21;102375.85;;;-1.31;100.00
32873;BME280;19224;52.462;16.898;2022-12-18T12:52:56;102382.25;;;-1.24;100.00
32873;BME280;19224;52.462;16.898;2022-12-18T12:55:29;102377.65;;;-1.30;100.00
32873;BME280;19224;52.462;16.898;2022-12-18T12:58:15;102378.59;;;-1.28;100.00
32873;BME280;19224;52.462;16.898;2022-12-18T13:10:23;102365.86;;;-1.27;100.00
32873;BME280;19224;52.462;16.898;2022-12-18T13:13:10;102353.77;;;-1.33;100.00
32873;BME280;19224;52.462;16.898;2022-12-18T13:16:05;102353.30;;;-1.45;100.00
32873;BME280;19224;52.462;16.898;2022-12-18T13:18:37;102357.16;;;-1.48;100.00
32873;BME280;19224;52.462;16.898;2022-12-18T13:23:56;102366.78;;;-1.50;100.00
32873;BME280;19224;52.462;16.898;2022-12-18T13:26:33;102364.13;;;-1.50;100.00
32873;BME280;19224;52.462;16.898;2022-12-18T13:29:10;102352.52;;;-1.55;100.00
32873;BME280;19224;52.462;16.898;2022-12-18T13:34:26;102360.20;;;-1.61;100.00
32873;BME280;19224;52.462;16.898;2022-12-18T13:43:26;102365.68;;;-1.67;100.00
32873;BME280;19224;52.462;16.898;2022-12-18T13:46:06;102367.41;;;-1.68;100.00
32873;BME280;19224;52.462;16.898;2022-12-18T13:48:38;102367.38;;;-1.69;100.00
32873;BME280;19224;52.462;16.898;2022-12-18T13:51:10;102373.25;;;-1.76;100.00
32873;BME280;19224;52.462;16.898;2022-12-18T13:53:55;102377.98;;;-1.79;100.00
32873;BME280;19224;52.462;16.898;2022-12-18T13:56:30;102376.38;;;-1.86;100.00
32873;BME280;19224;52.462;16.898;2022-12-18T14:01:56;102379.66;;;-1.70;100.00
32873;BME280;19224;52.462;16.898;2022-12-18T14:04:34;102372.39;;;-1.88;100.00
32873;BME280;19224;52.462;16.898;2022-12-18T14:07:10;102382.80;;;-1.91;100.00
32873;BME280;19224;52.462;16.898;2022-12-18T14:09:55;102377.97;;;-1.91;100.00
32873;BME280;19224;52.462;16.898;2022-12-18T14:12:32;102377.53;;;-1.91;100.00
32873;BME280;19224;52.462;16.898;2022-12-18T14:15:34;102384.97;;;-1.92;100.00
32873;BME280;19224;52.462;16.898;2022-12-18T14:18:25;102383.18;;;-2.04;100.00
32873;BME280;19224;52.462;16.898;2022-12-18T14:20:59;102385.34;;;-2.16;100.00
32873;BME280;19224;52.462;16.898;2022-12-18T14:23:41;102384.46;;;-2.27;100.00
32873;BME280;19224;52.462;16.898;2022-12-18T14:26:29;102401.77;;;-2.23;100.00
32873;BME280;19224;52.462;16.898;2022-12-18T14:32:14;102398.80;;;-2.21;100.00
32873;BME280;19224;52.462;16.898;2022-12-18T14:34:53;102394.47;;;-2.19;100.00
32873;BME280;19224;52.462;16.898;2022-12-18T14:37:26;102402.09;;;-2.15;100.00
32873;BME280;19224;52.462;16.898;2022-12-18T14:40:02;102405.98;;;-2.17;100.00
32873;BME280;19224;52.462;16.898;2022-12-18T14:42:33;102411.26;;;-2.17;100.00
32873;BME280;19224;52.462;16.898;2022-12-18T14:45:34;102414.62;;;-2.21;100.00
32873;BME280;19224;52.462;16.898;2022-12-18T14:48:20;102423.84;;;-2.32;100.00